Diego Cavallini 30:00 SkiErg

7,630

Meters

30:00.0

Time

1:57.9

Pace

505

Calories

166

Heart Rate

Average Watts213
Calories Per Hour1010
Stroke Rate41
Stroke Count1249
Drag Factor97

September 02, 2026 12:32:00

Workout
SkiErg

Workout Type
Fixed Time

Verified
Yes

Ranked
No

Entered
ErgData Android

Splits

Time Meters Pace Watts Cal/Hr Cal S/M
30:00.0 7,630 1:57.9 213 1010 505 41 166
1:00.0 265 1:53.2 241 1080 18 48 142
2:00.0 263 1:54.0 236 1080 18 45 153
3:00.0 262 1:54.5 233 1080 18 43 156
4:00.0 262 1:54.5 233 1080 18 45 161
5:00.0 258 1:56.2 223 1020 17 46 162
6:00.0 255 1:57.6 215 1020 17 45 160
7:00.0 256 1:57.1 217 1020 17 44 160
8:00.0 258 1:56.2 223 1020 17 43 164
9:00.0 255 1:57.6 215 1020 17 43 168
10:00.0 253 1:58.5 210 1020 17 43 165
11:00.0 255 1:57.6 215 1020 17 43 166
12:00.0 256 1:57.1 217 1020 17 42 167
13:00.0 254 1:58.1 212 1020 17 43 166
14:00.0 252 1:59.0 207 960 16 40 166
15:00.0 253 1:58.5 210 1020 17 41 168
16:00.0 255 1:57.6 215 1020 17 40 169
17:00.0 251 1:59.5 205 960 16 39 169
18:00.0 254 1:58.1 212 1020 17 39 170
19:00.0 251 1:59.5 205 960 16 39 168
20:00.0 251 1:59.5 205 960 16 39 170
21:00.0 249 2:00.4 200 960 16 39 167
22:00.0 248 2:00.9 198 960 16 39 170
23:00.0 249 2:00.4 200 960 16 40 170
24:00.0 251 1:59.5 205 960 16 40 173
25:00.0 246 2:01.9 193 960 16 40 172
26:00.0 249 2:00.4 200 960 16 40 171
27:00.0 247 2:01.4 195 960 16 39 172
28:00.0 247 2:01.4 195 960 16 40 172
29:00.0 247 2:01.4 195 960 16 39 174
30:00.0 278 1:47.9 279 1260 21 43 184

Click and drag on the graph to zoom in on a section.

Workout Graph

Loading data.